createdAt,value
2023-01-21T00:01:20.154Z,31.00
2023-01-21T00:03:48.690Z,30.13
2023-01-21T00:06:18.198Z,29.97
2023-01-21T00:08:46.355Z,28.27
2023-01-21T00:11:16.980Z,31.73
2023-01-21T00:13:45.864Z,31.93
2023-01-21T00:16:14.724Z,29.33
2023-01-21T00:18:43.375Z,30.63
2023-01-21T00:21:11.675Z,27.20
2023-01-21T00:23:41.214Z,29.93
2023-01-21T00:26:12.832Z,26.07
2023-01-21T00:28:43.762Z,28.20
2023-01-21T00:31:13.186Z,30.33
2023-01-21T00:33:41.468Z,28.77
2023-01-21T00:36:13.858Z,32.03
2023-01-21T00:38:43.611Z,34.00
2023-01-21T00:41:14.360Z,28.53
2023-01-21T00:43:44.011Z,28.77
2023-01-21T00:46:12.920Z,30.67
2023-01-21T00:48:41.368Z,31.30
2023-01-21T00:51:09.960Z,32.37
2023-01-21T00:53:41.993Z,33.50
2023-01-21T00:56:14.696Z,32.83
2023-01-21T00:58:44.288Z,34.27
2023-01-21T01:01:16.769Z,35.73
2023-01-21T01:03:46.434Z,33.10
2023-01-21T01:06:18.623Z,32.23
2023-01-21T01:08:49.465Z,33.50
2023-01-21T01:11:21.449Z,34.97
2023-01-21T01:13:49.708Z,31.00
2023-01-21T01:16:18.332Z,33.37
2023-01-21T01:18:47.228Z,29.93
2023-01-21T01:21:19.114Z,29.87
2023-01-21T01:23:47.798Z,34.33
2023-01-21T01:26:19.768Z,30.60
2023-01-21T01:28:48.407Z,30.27
2023-01-21T01:31:19.008Z,29.33
2023-01-21T01:33:48.210Z,32.50
2023-01-21T01:36:19.367Z,28.50
2023-01-21T01:38:47.949Z,30.37
2023-01-21T01:41:20.877Z,29.83
2023-01-21T01:44:27.558Z,28.60
2023-01-21T01:47:00.901Z,25.73
2023-01-21T01:49:29.095Z,27.20
2023-01-21T01:52:04.301Z,23.90
2023-01-21T01:54:39.239Z,24.63
2023-01-21T01:57:13.063Z,24.23
2023-01-21T01:59:44.171Z,24.23
2023-01-21T02:02:17.640Z,28.40
2023-01-21T02:04:51.166Z,27.30
2023-01-21T02:07:23.563Z,25.27
2023-01-21T02:09:55.231Z,26.97
2023-01-21T02:12:25.685Z,26.70
2023-01-21T02:14:53.886Z,21.33
2023-01-21T02:17:44.953Z,21.17
2023-01-21T02:20:59.711Z,23.97
2023-01-21T02:23:57.000Z,25.37
2023-01-21T02:27:06.770Z,28.50
2023-01-21T02:30:12.741Z,25.07
2023-01-21T02:33:20.013Z,23.57
2023-01-21T02:36:02.223Z,27.90
2023-01-21T02:38:35.616Z,25.90
2023-01-21T02:41:14.829Z,26.30
2023-01-21T02:43:54.844Z,26.90
2023-01-21T02:46:32.443Z,26.33
2023-01-21T02:49:08.472Z,26.33
2023-01-21T02:51:36.904Z,25.50
2023-01-21T02:54:15.778Z,25.93
2023-01-21T02:56:45.949Z,25.87
2023-01-21T02:59:14.432Z,26.47
2023-01-21T03:02:03.232Z,25.90
2023-01-21T03:04:54.296Z,29.13
2023-01-21T03:07:30.431Z,26.07
2023-01-21T03:10:10.651Z,27.23
2023-01-21T03:12:50.300Z,28.10
2023-01-21T03:15:45.206Z,27.40
2023-01-21T03:18:21.087Z,27.73
2023-01-21T03:20:56.276Z,25.70
2023-01-21T03:23:30.992Z,26.10
2023-01-21T03:26:01.612Z,24.43
2023-01-21T03:28:37.263Z,24.20
2023-01-21T03:31:11.449Z,28.13
2023-01-21T03:33:46.769Z,22.83
2023-01-21T03:36:29.908Z,25.50
2023-01-21T03:39:04.001Z,27.57
2023-01-21T03:41:40.214Z,21.33
2023-01-21T03:44:08.817Z,21.47
2023-01-21T03:46:45.102Z,22.33
2023-01-21T03:49:22.609Z,25.87
2023-01-21T03:51:58.948Z,26.83
2023-01-21T03:54:27.235Z,28.93
2023-01-21T03:56:55.381Z,26.90
2023-01-21T03:59:23.528Z,22.43
2023-01-21T04:01:51.670Z,25.80
2023-01-21T04:04:19.789Z,26.10
2023-01-21T04:06:47.896Z,24.43
2023-01-21T04:09:17.407Z,29.47
2023-01-21T04:11:45.525Z,27.87
2023-01-21T04:14:13.683Z,30.57
2023-01-21T04:16:41.884Z,27.70
2023-01-21T04:19:10.416Z,26.40
2023-01-21T04:21:38.542Z,29.43
2023-01-21T04:24:07.923Z,29.37
2023-01-21T04:26:37.360Z,33.00
2023-01-21T04:29:05.745Z,29.83
2023-01-21T04:31:33.932Z,29.67
2023-01-21T04:34:02.657Z,26.87
2023-01-21T04:36:30.905Z,25.57
2023-01-21T04:38:59.000Z,24.10
2023-01-21T04:41:27.138Z,28.10
2023-01-21T04:43:56.584Z,27.07
2023-01-21T04:46:24.740Z,22.27
2023-01-21T04:48:53.111Z,22.77
2023-01-21T04:51:21.299Z,25.33
2023-01-21T04:53:49.469Z,24.90
2023-01-21T04:56:17.547Z,26.67
2023-01-21T04:58:45.652Z,26.37
2023-01-21T05:01:15.165Z,25.50
2023-01-21T05:03:43.381Z,27.03
2023-01-21T05:06:11.584Z,25.10
2023-01-21T05:08:39.740Z,25.50
2023-01-21T05:11:09.711Z,24.83
2023-01-21T05:13:37.785Z,24.40
2023-01-21T05:16:09.808Z,24.30
2023-01-21T05:18:40.681Z,24.67
2023-01-21T05:21:09.558Z,20.57
2023-01-21T05:23:37.844Z,19.57
2023-01-21T05:26:06.419Z,15.37
2023-01-21T05:28:34.593Z,15.03
2023-01-21T05:31:04.119Z,18.43
2023-01-21T05:33:33.082Z,18.30
2023-01-21T05:36:04.016Z,15.60
2023-01-21T05:38:33.044Z,17.73
2023-01-21T05:41:03.501Z,17.70
2023-01-21T05:43:32.275Z,19.67
2023-01-21T05:46:00.448Z,17.63
2023-01-21T05:48:30.076Z,16.70
2023-01-21T05:50:58.619Z,14.80
2023-01-21T05:53:28.381Z,19.10
2023-01-21T05:55:58.320Z,16.30
2023-01-21T05:58:26.728Z,16.23
2023-01-21T06:00:54.901Z,15.10
2023-01-21T06:03:23.073Z,16.63
2023-01-21T06:05:51.493Z,16.03
2023-01-21T06:08:20.318Z,15.00
2023-01-21T06:10:49.812Z,14.30
2023-01-21T06:13:18.142Z,19.13
2023-01-21T06:15:46.303Z,15.43
2023-01-21T06:18:14.819Z,16.37
2023-01-21T06:20:42.961Z,18.80
2023-01-21T06:23:11.066Z,17.17
2023-01-21T06:25:39.165Z,17.27
2023-01-21T06:28:11.403Z,18.13
2023-01-21T06:30:39.891Z,19.37
2023-01-21T06:33:08.269Z,19.00
2023-01-21T06:35:36.995Z,18.57
2023-01-21T06:38:05.266Z,19.03
2023-01-21T06:40:33.367Z,18.27
2023-01-21T06:43:01.470Z,20.23
2023-01-21T06:45:30.977Z,18.80
2023-01-21T06:47:59.090Z,18.07
2023-01-21T06:50:27.308Z,17.63
2023-01-21T06:52:55.420Z,21.27
2023-01-21T06:55:23.546Z,20.07
2023-01-21T06:57:51.684Z,18.70
2023-01-21T07:00:20.786Z,16.77
2023-01-21T07:02:50.281Z,17.77
2023-01-21T07:05:20.634Z,19.40
2023-01-21T07:07:48.731Z,18.07
2023-01-21T07:10:17.885Z,20.63
2023-01-21T07:12:46.178Z,23.10
2023-01-21T07:15:14.507Z,19.03
2023-01-21T07:17:42.795Z,19.90
2023-01-21T07:20:13.184Z,19.27
2023-01-21T07:22:41.682Z,17.37
2023-01-21T07:25:10.887Z,19.37
2023-01-21T07:27:39.017Z,16.77
2023-01-21T07:30:09.210Z,20.50
2023-01-21T07:32:37.305Z,15.87
2023-01-21T07:35:06.146Z,19.23
2023-01-21T07:37:35.667Z,15.63
2023-01-21T07:40:03.923Z,17.53
2023-01-21T07:42:32.048Z,14.43
2023-01-21T07:45:02.759Z,18.27
2023-01-21T07:47:31.234Z,16.73
2023-01-21T07:50:04.731Z,16.10
2023-01-21T07:52:35.078Z,14.93
2023-01-21T07:55:03.440Z,16.70
2023-01-21T07:57:31.943Z,15.83
2023-01-21T08:00:00.104Z,14.97
2023-01-21T08:02:28.441Z,16.00
2023-01-21T08:04:56.586Z,13.83
2023-01-21T08:07:24.783Z,16.40
2023-01-21T08:09:54.277Z,16.33
2023-01-21T08:12:22.443Z,13.40
2023-01-21T08:14:50.596Z,16.17
2023-01-21T08:17:18.755Z,17.20
2023-01-21T08:19:46.827Z,14.47
2023-01-21T08:22:14.954Z,15.23
2023-01-21T08:24:43.051Z,15.13
2023-01-21T08:27:12.515Z,15.80
2023-01-21T08:29:40.616Z,14.70
2023-01-21T08:32:08.759Z,19.07
2023-01-21T08:34:37.062Z,18.00
2023-01-21T08:37:05.120Z,19.03
2023-01-21T08:39:33.384Z,19.30
2023-01-21T08:42:01.554Z,17.33
2023-01-21T08:44:31.032Z,14.33
2023-01-21T08:46:59.225Z,14.67
2023-01-21T08:49:27.310Z,14.33
2023-01-21T08:51:55.668Z,15.10
2023-01-21T08:54:23.783Z,16.40
2023-01-21T08:56:51.912Z,15.53
2023-01-21T08:59:27.132Z,15.87
2023-01-21T09:01:57.175Z,14.90
2023-01-21T09:04:25.336Z,12.97
2023-01-21T09:06:53.808Z,15.87
2023-01-21T09:09:22.005Z,14.70
2023-01-21T09:11:50.220Z,14.17
2023-01-21T09:14:18.324Z,14.37
2023-01-21T09:16:49.068Z,14.97
2023-01-21T09:19:18.650Z,15.23
2023-01-21T09:21:46.887Z,13.03
2023-01-21T09:24:15.022Z,14.43
2023-01-21T09:26:44.993Z,13.43
2023-01-21T09:29:13.445Z,11.00
2023-01-21T09:31:41.621Z,13.17
2023-01-21T09:34:11.726Z,13.67
2023-01-21T09:36:41.469Z,11.10
2023-01-21T09:39:09.653Z,13.67
2023-01-21T09:41:42.714Z,12.73
2023-01-21T09:44:26.577Z,12.77
2023-01-21T09:47:01.898Z,12.73
2023-01-21T09:49:37.323Z,12.50
2023-01-21T09:52:27.222Z,12.87
2023-01-21T09:54:56.966Z,10.97
2023-01-21T09:57:54.468Z,12.90
2023-01-21T10:00:37.788Z,10.87
2023-01-21T10:03:21.317Z,13.77
2023-01-21T10:06:12.396Z,12.87
2023-01-21T10:09:00.602Z,14.60
2023-01-21T10:11:46.720Z,14.00
2023-01-21T10:14:52.731Z,13.37
2023-01-21T10:17:35.168Z,15.07
2023-01-21T10:20:14.629Z,12.63
2023-01-21T10:22:52.112Z,13.40
2023-01-21T10:25:32.185Z,11.83
2023-01-21T10:28:07.313Z,11.00
2023-01-21T10:30:41.028Z,10.63
2023-01-21T10:33:21.120Z,13.03
2023-01-21T10:36:30.176Z,10.40
2023-01-21T10:39:09.911Z,13.80
2023-01-21T10:42:26.331Z,13.80
2023-01-21T10:45:05.754Z,11.80
2023-01-21T10:47:44.882Z,12.60
2023-01-21T10:50:29.737Z,12.60
2023-01-21T10:53:07.705Z,11.27
2023-01-21T10:55:56.953Z,14.93
2023-01-21T10:58:42.353Z,12.60
2023-01-21T11:01:19.693Z,9.47
2023-01-21T11:03:52.713Z,11.87
2023-01-21T11:06:24.058Z,13.23
2023-01-21T11:09:02.520Z,12.47
2023-01-21T11:11:34.618Z,14.17
2023-01-21T11:14:04.390Z,12.77
2023-01-21T11:16:43.879Z,14.20
2023-01-21T11:19:16.548Z,13.93
2023-01-21T11:22:04.980Z,12.30
2023-01-21T11:24:43.537Z,13.10
2023-01-21T11:27:22.523Z,11.60
2023-01-21T11:29:52.106Z,14.93
2023-01-21T11:32:24.026Z,11.87
2023-01-21T11:35:02.500Z,13.23
2023-01-21T11:37:33.634Z,14.27
2023-01-21T11:40:07.105Z,13.43
2023-01-21T11:42:48.182Z,11.77
2023-01-21T11:45:36.274Z,14.80
2023-01-21T11:48:21.429Z,13.00
2023-01-21T11:50:49.626Z,12.07
2023-01-21T11:53:20.014Z,14.57
2023-01-21T11:55:51.247Z,12.43
2023-01-21T11:58:25.008Z,13.80
2023-01-21T12:00:57.703Z,11.40
2023-01-21T12:03:32.334Z,11.93
2023-01-21T12:06:01.580Z,12.50
2023-01-21T12:08:34.817Z,13.20
2023-01-21T12:11:07.595Z,13.37
2023-01-21T12:13:45.955Z,11.53
2023-01-21T12:16:35.199Z,13.10
2023-01-21T12:19:36.179Z,16.40
2023-01-21T12:22:43.467Z,13.57
2023-01-21T12:25:29.021Z,10.17
2023-01-21T12:28:19.751Z,12.93
2023-01-21T12:31:03.316Z,13.73
2023-01-21T12:33:47.685Z,11.33
2023-01-21T12:36:22.936Z,13.27
2023-01-21T12:39:09.293Z,14.53
2023-01-21T12:41:41.083Z,15.70
2023-01-21T12:44:27.385Z,11.93
2023-01-21T12:47:03.568Z,13.87
2023-01-21T12:49:55.081Z,11.07
2023-01-21T12:52:31.537Z,12.60
2023-01-21T12:55:13.018Z,13.10
2023-01-21T12:57:52.162Z,11.90
2023-01-21T13:00:25.556Z,12.57
2023-01-21T13:03:04.821Z,12.27
2023-01-21T13:05:45.285Z,12.27
2023-01-21T13:08:49.541Z,14.53
2023-01-21T13:11:22.248Z,14.50
2023-01-21T13:14:03.124Z,13.30
2023-01-21T13:16:33.006Z,13.47
2023-01-21T13:19:01.471Z,13.60
2023-01-21T13:21:42.822Z,12.50
2023-01-21T13:24:18.788Z,13.30
2023-01-21T13:27:02.966Z,13.80
2023-01-21T13:29:47.276Z,13.00
2023-01-21T13:32:37.952Z,13.07
2023-01-21T13:35:24.053Z,14.63
2023-01-21T13:38:06.001Z,12.93
2023-01-21T13:40:51.646Z,13.90
2023-01-21T13:43:54.569Z,12.43
2023-01-21T13:46:49.139Z,14.03
2023-01-21T13:49:54.133Z,14.87
2023-01-21T13:52:32.819Z,15.23
2023-01-21T13:55:25.538Z,14.87
2023-01-21T13:58:05.635Z,15.57
2023-01-21T14:00:39.731Z,15.10
2023-01-21T14:03:25.257Z,13.83
2023-01-21T14:06:01.014Z,13.87
2023-01-21T14:08:37.367Z,14.67
2023-01-21T14:11:16.664Z,18.27
2023-01-21T14:14:28.916Z,14.90
2023-01-21T14:17:23.899Z,15.80
2023-01-21T14:20:33.269Z,15.27
2023-01-21T14:23:37.132Z,17.80
2023-01-21T14:26:26.525Z,15.33
2023-01-21T14:29:09.683Z,17.80
2023-01-21T14:31:45.524Z,14.67
2023-01-21T14:34:21.067Z,15.90
2023-01-21T14:37:03.420Z,14.77
2023-01-21T14:39:47.416Z,14.60
2023-01-21T14:42:19.008Z,16.50
2023-01-21T14:45:05.960Z,15.40
2023-01-21T14:47:50.036Z,16.67
2023-01-21T14:50:53.777Z,17.17
2023-01-21T14:53:26.602Z,16.33
2023-01-21T14:56:13.537Z,15.83
2023-01-21T14:58:48.989Z,15.80
2023-01-21T15:01:39.617Z,17.10
2023-01-21T15:04:21.265Z,15.50
2023-01-21T15:06:54.888Z,17.93
2023-01-21T15:09:30.522Z,15.67
2023-01-21T15:12:03.541Z,16.70
2023-01-21T15:14:39.471Z,16.60
2023-01-21T15:18:03.935Z,16.50
2023-01-21T15:20:51.668Z,16.37
2023-01-21T15:23:36.780Z,16.50
2023-01-21T15:26:30.336Z,19.53
2023-01-21T15:29:34.614Z,15.97
2023-01-21T15:32:29.585Z,17.70
2023-01-21T15:35:04.340Z,17.33
2023-01-21T15:37:38.893Z,16.73
2023-01-21T15:40:26.912Z,18.23
2023-01-21T15:43:04.355Z,17.03
2023-01-21T15:45:47.286Z,18.60
2023-01-21T15:48:42.661Z,19.17
2023-01-21T15:51:30.481Z,16.87
2023-01-21T15:54:21.477Z,17.70
2023-01-21T15:57:08.749Z,15.87
2023-01-21T15:59:59.389Z,17.70
2023-01-21T16:02:32.703Z,17.23
2023-01-21T16:05:23.167Z,18.57
2023-01-21T16:08:12.267Z,17.70
2023-01-21T16:10:55.479Z,15.53
2023-01-21T16:13:37.353Z,16.57
2023-01-21T16:16:18.042Z,17.93
2023-01-21T16:18:56.085Z,15.97
2023-01-21T16:21:30.361Z,15.17
2023-01-21T16:24:10.989Z,19.83
2023-01-21T16:26:39.149Z,19.97
2023-01-21T16:29:13.197Z,17.90
2023-01-21T16:31:50.709Z,18.03
2023-01-21T16:34:40.653Z,17.37
2023-01-21T16:37:12.246Z,17.67
2023-01-21T16:39:42.914Z,19.53
2023-01-21T16:42:27.364Z,19.67
2023-01-21T16:44:55.612Z,17.50
2023-01-21T16:47:30.878Z,18.40
2023-01-21T16:49:59.088Z,17.53
2023-01-21T16:52:27.977Z,18.33
2023-01-21T16:54:57.627Z,18.03
2023-01-21T16:57:31.620Z,20.77
2023-01-21T17:00:02.500Z,18.77
2023-01-21T17:02:33.995Z,19.43
2023-01-21T17:05:05.901Z,19.30
2023-01-21T17:07:42.321Z,20.03
2023-01-21T17:10:23.418Z,16.80
2023-01-21T17:12:56.732Z,16.33
2023-01-21T17:15:31.369Z,14.90
2023-01-21T17:18:01.670Z,16.87
2023-01-21T17:20:41.532Z,17.20
2023-01-21T17:23:17.719Z,16.67
2023-01-21T17:25:56.666Z,15.73
2023-01-21T17:28:39.788Z,14.30
2023-01-21T17:31:27.673Z,16.00
2023-01-21T17:34:07.239Z,12.33
2023-01-21T17:36:38.957Z,15.97
2023-01-21T17:39:09.849Z,14.33
2023-01-21T17:41:41.684Z,16.00
2023-01-21T17:44:20.150Z,14.10
2023-01-21T17:46:51.116Z,13.33
2023-01-21T17:49:23.954Z,14.43
2023-01-21T17:51:56.587Z,13.33
2023-01-21T17:54:29.332Z,14.20
2023-01-21T17:57:01.025Z,12.77
2023-01-21T17:59:38.661Z,13.83
2023-01-21T18:02:12.604Z,12.57
2023-01-21T18:04:41.199Z,14.00
2023-01-21T18:07:22.757Z,11.87
2023-01-21T18:09:51.562Z,12.60
2023-01-21T18:12:21.167Z,12.50
2023-01-21T18:14:49.483Z,12.03
2023-01-21T18:17:21.155Z,11.40
2023-01-21T18:19:49.573Z,10.07
2023-01-21T18:22:24.552Z,10.03
2023-01-21T18:24:52.655Z,7.77
2023-01-21T18:27:26.008Z,9.63
2023-01-21T18:29:54.848Z,9.13
2023-01-21T18:32:22.997Z,8.07
2023-01-21T18:34:51.127Z,8.03
2023-01-21T18:37:21.183Z,9.07
2023-01-21T18:39:49.372Z,8.73
2023-01-21T18:42:19.271Z,7.53
2023-01-21T18:44:48.763Z,7.27
2023-01-21T18:47:20.430Z,7.67
2023-01-21T18:49:49.672Z,8.63
2023-01-21T18:52:21.677Z,6.40
2023-01-21T18:54:49.806Z,6.30
2023-01-21T18:57:22.478Z,6.57
2023-01-21T18:59:51.989Z,7.70
2023-01-21T19:02:21.975Z,7.70
2023-01-21T19:04:50.793Z,5.50
2023-01-21T19:07:22.294Z,5.37
2023-01-21T19:09:51.099Z,6.27
2023-01-21T19:12:24.170Z,6.03
2023-01-21T19:14:53.721Z,5.43
2023-01-21T19:17:27.358Z,5.67
2023-01-21T19:19:56.708Z,5.47
2023-01-21T19:22:25.108Z,7.77
2023-01-21T19:24:53.212Z,6.87
2023-01-21T19:27:31.417Z,5.73
2023-01-21T19:30:00.939Z,5.87
2023-01-21T19:32:29.151Z,5.13
2023-01-21T19:34:57.767Z,5.53
2023-01-21T19:37:26.494Z,6.43
2023-01-21T19:39:54.612Z,4.40
2023-01-21T19:42:22.735Z,4.53
2023-01-21T19:44:50.854Z,4.50
2023-01-21T19:47:28.703Z,4.93
2023-01-21T19:49:56.836Z,4.33
2023-01-21T19:52:25.132Z,4.37
2023-01-21T19:54:55.093Z,5.57
2023-01-21T19:57:23.663Z,3.43
2023-01-21T19:59:54.426Z,4.13
2023-01-21T20:02:23.917Z,4.30
2023-01-21T20:04:52.060Z,4.37
2023-01-21T20:07:22.022Z,6.00
2023-01-21T20:09:50.147Z,4.73
2023-01-21T20:12:18.441Z,4.07
2023-01-21T20:14:46.903Z,4.57
2023-01-21T20:17:15.251Z,4.40
2023-01-21T20:19:44.715Z,3.90
2023-01-21T20:22:14.300Z,4.10
2023-01-21T20:24:43.496Z,3.77
2023-01-21T20:27:15.165Z,3.30
2023-01-21T20:29:55.575Z,4.00
2023-01-21T20:32:30.535Z,3.30
2023-01-21T20:34:59.993Z,4.20
2023-01-21T20:37:28.171Z,3.97
2023-01-21T20:39:56.348Z,4.20
2023-01-21T20:42:26.268Z,4.17
2023-01-21T20:44:55.354Z,5.87
2023-01-21T20:47:37.692Z,3.93
2023-01-21T20:50:18.555Z,3.50
2023-01-21T20:52:47.710Z,3.80
2023-01-21T20:55:20.757Z,3.50
2023-01-21T20:57:49.428Z,3.87
2023-01-21T21:00:21.465Z,3.80
2023-01-21T21:02:50.001Z,3.57
2023-01-21T21:05:19.891Z,3.80
2023-01-21T21:07:48.572Z,3.50
2023-01-21T21:10:23.334Z,4.33
2023-01-21T21:12:51.710Z,3.97
2023-01-21T21:15:21.245Z,4.27
2023-01-21T21:17:49.932Z,3.50
2023-01-21T21:20:24.765Z,3.43
2023-01-21T21:22:53.112Z,4.23
2023-01-21T21:25:23.945Z,3.83
2023-01-21T21:27:52.668Z,3.53
2023-01-21T21:30:26.581Z,3.40
2023-01-21T21:32:57.483Z,3.53
2023-01-21T21:35:29.791Z,4.00
2023-01-21T21:37:59.841Z,3.40
2023-01-21T21:40:30.327Z,3.93
2023-01-21T21:43:17.086Z,4.37
2023-01-21T21:45:59.504Z,3.97
2023-01-21T21:48:41.247Z,4.47
2023-01-21T21:51:14.016Z,4.00
2023-01-21T21:53:42.948Z,6.47
2023-01-21T21:56:16.317Z,4.87
2023-01-21T21:58:45.439Z,4.30
2023-01-21T22:01:17.451Z,4.60
2023-01-21T22:03:46.051Z,3.90
2023-01-21T22:06:18.285Z,3.33
2023-01-21T22:08:46.813Z,3.47
2023-01-21T22:11:17.166Z,4.17
2023-01-21T22:13:50.034Z,4.10
2023-01-21T22:16:21.453Z,4.80
2023-01-21T22:18:49.585Z,6.53
2023-01-21T22:21:21.539Z,4.03
2023-01-21T22:23:50.293Z,4.17
2023-01-21T22:26:20.944Z,4.73
2023-01-21T22:28:51.192Z,4.13
2023-01-21T22:31:22.705Z,4.13
2023-01-21T22:33:52.082Z,4.33
2023-01-21T22:36:24.387Z,4.60
2023-01-21T22:38:53.159Z,3.93
2023-01-21T22:41:23.864Z,4.30
2023-01-21T22:43:52.573Z,3.97
2023-01-21T22:46:24.148Z,4.50
2023-01-21T22:48:53.814Z,4.47
2023-01-21T22:51:23.859Z,4.23
2023-01-21T22:53:53.816Z,4.27
2023-01-21T22:56:45.064Z,4.43
2023-01-21T22:59:13.233Z,4.43
2023-01-21T23:01:41.724Z,5.53
2023-01-21T23:04:10.719Z,4.40
2023-01-21T23:06:40.241Z,4.70
2023-01-21T23:09:11.305Z,4.13
2023-01-21T23:11:41.528Z,5.43
2023-01-21T23:14:10.586Z,5.63
2023-01-21T23:16:39.307Z,5.10
2023-01-21T23:19:07.550Z,5.50
2023-01-21T23:21:37.574Z,7.47
2023-01-21T23:24:08.808Z,9.10
2023-01-21T23:26:37.795Z,6.33
2023-01-21T23:29:05.938Z,6.70
2023-01-21T23:31:35.178Z,6.40
2023-01-21T23:34:03.617Z,6.03
2023-01-21T23:36:31.724Z,6.20
2023-01-21T23:38:59.842Z,6.73
2023-01-21T23:41:29.408Z,5.37
2023-01-21T23:44:00.694Z,6.40
2023-01-21T23:46:29.151Z,5.00
2023-01-21T23:48:57.566Z,5.87
2023-01-21T23:51:25.676Z,5.40
2023-01-21T23:53:53.812Z,5.10
2023-01-21T23:56:24.384Z,5.73
2023-01-21T23:58:54.675Z,5.37
